TVS4459 VAAH-HEGN
Flight info
| Callsign | TVS4459 |
|---|---|
| Flight time | N/A |
| Altitude | 35000 |
| Route | LIGPI1A LIGPI W62 HSR/N0458F360 W74 LAXOM L639 RASKI N881 KIPOL L444 TOLDA M628 TULBU G652 TOKRA DCT MEDPO DCT BOSOB DCT ITRUX Y511 NALBA/N0461F380 Y511 PMA Z712 WEJ L677 PASAM N316 HGD |
| Aircraft | B38M/M-SDE3FGHIJ1J3J4J7M3P2RWXY/LB1D1 |
Departure
| Time | 2026-04-18 11:44 |
|---|---|
| Airport | Sardar Vallabh Patel International Airport (VAAH) |
Arrival
| Time | N/A |
|---|---|
| Airport | Hurghada International Airport (HEGN) |
| Time | Latitude | Longitude | Altitude | Speed | Heading |
|---|---|---|---|---|---|
| 2026-04-18 11:17 | 23.07425 | 72.62744 | 191 ft | 0 kts | 134° |
| 2026-04-18 11:31 | 23.07430 | 72.62738 | 206 ft | 4 kts | 134° |
| 2026-04-18 11:31 | 23.07449 | 72.62717 | 205 ft | 4 kts | 133° |
| 2026-04-18 11:31 | 23.07465 | 72.62695 | 199 ft | 4 kts | 116° |
| 2026-04-18 11:32 | 23.07468 | 72.62674 | 204 ft | 3 kts | 51° |
| 2026-04-18 11:32 | 23.07466 | 72.62672 | 202 ft | 2 kts | 46° |
| 2026-04-18 11:36 | 23.07467 | 72.62673 | 202 ft | 1 kts | 46° |
| 2026-04-18 11:36 | 23.07473 | 72.62679 | 204 ft | 2 kts | 46° |
| 2026-04-18 11:36 | 23.07485 | 72.62693 | 196 ft | 3 kts | 46° |
| 2026-04-18 11:37 | 23.07503 | 72.62714 | 194 ft | 5 kts | 46° |
| 2026-04-18 11:37 | 23.07528 | 72.62742 | 189 ft | 6 kts | 46° |
| 2026-04-18 11:37 | 23.07533 | 72.62751 | 189 ft | 0 kts | 70° |
| 2026-04-18 11:37 | 23.07533 | 72.62753 | 190 ft | 1 kts | 71° |
| 2026-04-18 11:38 | 23.07533 | 72.62780 | 198 ft | 7 kts | 103° |
| 2026-04-18 11:38 | 23.07478 | 72.62850 | 196 ft | 17 kts | 135° |
| 2026-04-18 11:38 | 23.07471 | 72.62926 | 207 ft | 11 kts | 49° |
| 2026-04-18 11:38 | 23.07544 | 72.63005 | 195 ft | 19 kts | 43° |
| 2026-04-18 11:39 | 23.07654 | 72.63118 | 197 ft | 25 kts | 46° |
| 2026-04-18 11:39 | 23.07794 | 72.63272 | 201 ft | 33 kts | 44° |
| 2026-04-18 11:39 | 23.07878 | 72.63384 | 196 ft | 11 kts | 96° |
| 2026-04-18 11:39 | 23.07831 | 72.63474 | 198 ft | 15 kts | 129° |
| 2026-04-18 11:40 | 23.07840 | 72.63572 | 200 ft | 17 kts | 41° |
| 2026-04-18 11:40 | 23.07945 | 72.63683 | 199 ft | 25 kts | 45° |
| 2026-04-18 11:40 | 23.08086 | 72.63834 | 193 ft | 32 kts | 45° |
| 2026-04-18 11:40 | 23.08260 | 72.64019 | 200 ft | 32 kts | 44° |
| 2026-04-18 11:41 | 23.08403 | 72.64174 | 201 ft | 33 kts | 45° |
| 2026-04-18 11:41 | 23.08582 | 72.64367 | 201 ft | 40 kts | 44° |
| 2026-04-18 11:41 | 23.08750 | 72.64548 | 202 ft | 28 kts | 41° |
| 2026-04-18 11:41 | 23.08855 | 72.64609 | 193 ft | 9 kts | 86° |
| 2026-04-18 11:42 | 23.08841 | 72.64628 | 201 ft | 2 kts | 165° |
| 2026-04-18 11:42 | 23.08808 | 72.64606 | 197 ft | 9 kts | 225° |
| 2026-04-18 11:42 | 23.08799 | 72.64597 | 199 ft | 1 kts | 224° |
| 2026-04-18 11:42 | 23.08718 | 72.64509 | 209 ft | 44 kts | 225° |
| 2026-04-18 11:43 | 23.08360 | 72.64122 | 201 ft | 102 kts | 225° |
| 2026-04-18 11:43 | 23.07730 | 72.63449 | 208 ft | 150 kts | 225° |
| 2026-04-18 11:43 | 23.06928 | 72.62555 | 358 ft | 173 kts | 225° |
| 2026-04-18 11:43 | 23.06101 | 72.61579 | 766 ft | 179 kts | 234° |
| 2026-04-18 11:44 | 23.05525 | 72.60341 | 1072 ft | 187 kts | 258° |
| 2026-04-18 11:44 | 23.05256 | 72.58993 | 1709 ft | 184 kts | 266° |
| 2026-04-18 11:44 | 23.05075 | 72.57548 | 1918 ft | 204 kts | 264° |
| 2026-04-18 11:44 | 23.04872 | 72.55958 | 2166 ft | 222 kts | 265° |
| 2026-04-18 11:45 | 23.04644 | 72.54244 | 2453 ft | 235 kts | 263° |
| 2026-04-18 11:45 | 23.04406 | 72.52460 | 2899 ft | 241 kts | 264° |
| 2026-04-18 11:45 | 23.04162 | 72.50643 | 3389 ft | 245 kts | 263° |
| 2026-04-18 11:45 | 23.03919 | 72.48824 | 3866 ft | 249 kts | 263° |
| 2026-04-18 11:46 | 23.03668 | 72.46957 | 4414 ft | 254 kts | 262° |
| 2026-04-18 11:46 | 23.03407 | 72.45008 | 4714 ft | 267 kts | 262° |
| 2026-04-18 11:46 | 23.03133 | 72.42977 | 5113 ft | 275 kts | 262° |
| 2026-04-18 11:46 | 23.02856 | 72.40928 | 5746 ft | 274 kts | 262° |
| 2026-04-18 11:47 | 23.02580 | 72.38881 | 6331 ft | 275 kts | 261° |
| 2026-04-18 11:47 | 23.02303 | 72.36822 | 6908 ft | 274 kts | 261° |
| 2026-04-18 11:47 | 23.02027 | 72.34771 | 7489 ft | 276 kts | 261° |
| 2026-04-18 11:47 | 23.01748 | 72.32707 | 8059 ft | 277 kts | 261° |
| 2026-04-18 11:48 | 23.01472 | 72.30668 | 8653 ft | 277 kts | 261° |
| 2026-04-18 11:48 | 23.01192 | 72.28601 | 9272 ft | 277 kts | 260° |
| 2026-04-18 11:48 | 23.00912 | 72.26531 | 9861 ft | 278 kts | 260° |
| 2026-04-18 11:48 | 23.00624 | 72.24413 | 10157 ft | 292 kts | 259° |
| 2026-04-18 11:49 | 23.00317 | 72.22160 | 10248 ft | 311 kts | 260° |
| 2026-04-18 11:49 | 22.99992 | 72.19772 | 10347 ft | 328 kts | 260° |
| 2026-04-18 11:49 | 22.99653 | 72.17284 | 10613 ft | 336 kts | 260° |
| 2026-04-18 11:49 | 22.99311 | 72.14775 | 11082 ft | 339 kts | 259° |
| 2026-04-18 11:50 | 22.98963 | 72.12225 | 11542 ft | 343 kts | 259° |
| 2026-04-18 11:50 | 22.98612 | 72.09654 | 12044 ft | 347 kts | 259° |
| 2026-04-18 11:50 | 22.98261 | 72.07084 | 12524 ft | 351 kts | 259° |
| 2026-04-18 11:50 | 22.97900 | 72.04450 | 13043 ft | 355 kts | 259° |
| 2026-04-18 11:51 | 22.97535 | 72.01784 | 13574 ft | 360 kts | 259° |
| 2026-04-18 11:51 | 22.97165 | 71.99084 | 14066 ft | 363 kts | 259° |
| 2026-04-18 11:51 | 22.96792 | 71.96371 | 14637 ft | 365 kts | 259° |
| 2026-04-18 11:51 | 22.96418 | 71.93653 | 15172 ft | 367 kts | 259° |
| 2026-04-18 11:52 | 22.96041 | 71.90915 | 15697 ft | 369 kts | 259° |
| 2026-04-18 11:52 | 22.95656 | 71.88124 | 16245 ft | 371 kts | 259° |
| 2026-04-18 11:52 | 22.95276 | 71.85375 | 16740 ft | 373 kts | 259° |
| 2026-04-18 11:52 | 22.94892 | 71.82592 | 17246 ft | 375 kts | 259° |
| 2026-04-18 11:53 | 22.94500 | 71.79768 | 17724 ft | 377 kts | 259° |
| 2026-04-18 11:53 | 22.94111 | 71.76961 | 18171 ft | 380 kts | 260° |
| 2026-04-18 11:53 | 22.93720 | 71.74149 | 18580 ft | 382 kts | 260° |
| 2026-04-18 11:53 | 22.93322 | 71.71282 | 18995 ft | 383 kts | 260° |
| 2026-04-18 11:54 | 22.92923 | 71.68417 | 19406 ft | 385 kts | 260° |
| 2026-04-18 11:54 | 22.92525 | 71.65560 | 19812 ft | 387 kts | 259° |
| 2026-04-18 11:54 | 22.92119 | 71.62656 | 20220 ft | 388 kts | 259° |
| 2026-04-18 11:54 | 22.91713 | 71.59752 | 20627 ft | 390 kts | 259° |
| 2026-04-18 11:55 | 22.91306 | 71.56844 | 21034 ft | 392 kts | 259° |
| 2026-04-18 11:55 | 22.90894 | 71.53911 | 21472 ft | 394 kts | 259° |
| 2026-04-18 11:55 | 22.90487 | 71.51005 | 21883 ft | 396 kts | 259° |
| 2026-04-18 11:55 | 22.90068 | 71.48022 | 22300 ft | 397 kts | 259° |
| 2026-04-18 11:56 | 22.89653 | 71.45073 | 22716 ft | 399 kts | 259° |
| 2026-04-18 11:56 | 22.89234 | 71.42102 | 23112 ft | 402 kts | 259° |
| 2026-04-18 11:56 | 22.88812 | 71.39115 | 23498 ft | 404 kts | 259° |
| 2026-04-18 11:56 | 22.88386 | 71.36100 | 23844 ft | 405 kts | 259° |
| 2026-04-18 11:57 | 22.87958 | 71.33073 | 24194 ft | 407 kts | 259° |
| 2026-04-18 11:57 | 22.87527 | 71.30031 | 24551 ft | 409 kts | 259° |
| 2026-04-18 11:57 | 22.87093 | 71.26976 | 24906 ft | 411 kts | 259° |
| 2026-04-18 11:57 | 22.86663 | 71.23949 | 25242 ft | 413 kts | 259° |
| 2026-04-18 11:58 | 22.86225 | 71.20866 | 25579 ft | 415 kts | 259° |
| 2026-04-18 11:58 | 22.85783 | 71.17771 | 25907 ft | 417 kts | 259° |
| 2026-04-18 11:58 | 22.85340 | 71.14662 | 26233 ft | 418 kts | 259° |
| 2026-04-18 11:58 | 22.84893 | 71.11537 | 26553 ft | 420 kts | 259° |
| 2026-04-18 11:59 | 22.84444 | 71.08401 | 26876 ft | 422 kts | 259° |
| 2026-04-18 11:59 | 22.83992 | 71.05248 | 27183 ft | 424 kts | 259° |
| 2026-04-18 11:59 | 22.83539 | 71.02087 | 27484 ft | 426 kts | 259° |
| 2026-04-18 11:59 | 22.83082 | 70.98910 | 27792 ft | 427 kts | 259° |
| 2026-04-18 12:00 | 22.82623 | 70.95719 | 28087 ft | 429 kts | 259° |
| 2026-04-18 12:00 | 22.82162 | 70.92524 | 28381 ft | 431 kts | 259° |
| 2026-04-18 12:00 | 22.81703 | 70.89347 | 28668 ft | 433 kts | 259° |
| 2026-04-18 12:00 | 22.81236 | 70.86116 | 28980 ft | 434 kts | 259° |
| 2026-04-18 12:01 | 22.81118 | 70.79558 | 29581 ft | 440 kts | 270° |
| 2026-04-18 12:01 | 22.81306 | 70.76235 | 29799 ft | 443 kts | 270° |
| 2026-04-18 12:01 | 22.81507 | 70.72900 | 30066 ft | 444 kts | 271° |
| 2026-04-18 12:02 | 22.81718 | 70.69542 | 30356 ft | 444 kts | 271° |
| 2026-04-18 12:02 | 22.81925 | 70.66256 | 30663 ft | 444 kts | 271° |
| 2026-04-18 12:02 | 22.82135 | 70.62931 | 30986 ft | 443 kts | 271° |
| 2026-04-18 12:02 | 22.82345 | 70.59609 | 31320 ft | 442 kts | 270° |
| 2026-04-18 12:03 | 22.82554 | 70.56269 | 31646 ft | 441 kts | 270° |
| 2026-04-18 12:03 | 22.82761 | 70.52965 | 31975 ft | 440 kts | 270° |
| 2026-04-18 12:03 | 22.82968 | 70.49646 | 32302 ft | 440 kts | 270° |
| 2026-04-18 12:03 | 22.83173 | 70.46363 | 32641 ft | 439 kts | 270° |
| 2026-04-18 12:04 | 22.83378 | 70.43060 | 32966 ft | 438 kts | 270° |
| 2026-04-18 12:04 | 22.83579 | 70.39803 | 33278 ft | 437 kts | 270° |
| 2026-04-18 12:04 | 22.83781 | 70.36518 | 33590 ft | 437 kts | 270° |
| 2026-04-18 12:04 | 22.83982 | 70.33246 | 33891 ft | 436 kts | 270° |
| 2026-04-18 12:05 | 22.84184 | 70.29959 | 34145 ft | 435 kts | 270° |
| 2026-04-18 12:05 | 22.84383 | 70.26684 | 34412 ft | 434 kts | 270° |
| 2026-04-18 12:05 | 22.84579 | 70.23461 | 34667 ft | 433 kts | 270° |
| 2026-04-18 12:05 | 22.84778 | 70.20171 | 34845 ft | 432 kts | 270° |
| 2026-04-18 12:06 | 22.84972 | 70.16974 | 34849 ft | 430 kts | 270° |
| 2026-04-18 12:06 | 22.85360 | 70.10514 | 34842 ft | 428 kts | 270° |
| 2026-04-18 12:07 | 22.85745 | 70.04061 | 34832 ft | 428 kts | 270° |
| 2026-04-18 12:07 | 22.86124 | 69.97657 | 34831 ft | 428 kts | 270° |
| 2026-04-18 12:08 | 22.86502 | 69.91228 | 34835 ft | 429 kts | 270° |
| 2026-04-18 12:08 | 22.86880 | 69.84772 | 34840 ft | 429 kts | 270° |
| 2026-04-18 12:09 | 22.87255 | 69.78320 | 34836 ft | 429 kts | 270° |
| 2026-04-18 12:09 | 22.87628 | 69.71864 | 34834 ft | 429 kts | 270° |
| 2026-04-18 12:10 | 22.88041 | 69.65454 | 34837 ft | 429 kts | 270° |
| 2026-04-18 12:10 | 22.88457 | 69.59002 | 34837 ft | 429 kts | 270° |
| 2026-04-18 12:11 | 22.88871 | 69.52544 | 34846 ft | 429 kts | 270° |
| 2026-04-18 12:11 | 22.89281 | 69.46096 | 34835 ft | 429 kts | 270° |
| 2026-04-18 12:12 | 22.89687 | 69.39684 | 34835 ft | 429 kts | 270° |
| 2026-04-18 12:12 | 22.90092 | 69.33233 | 34836 ft | 429 kts | 270° |
| 2026-04-18 12:13 | 22.90494 | 69.26778 | 34836 ft | 429 kts | 270° |
| 2026-04-18 12:13 | 22.90894 | 69.20324 | 34838 ft | 429 kts | 270° |
| 2026-04-18 12:14 | 22.91292 | 69.13872 | 34838 ft | 429 kts | 270° |
| 2026-04-18 12:14 | 22.91684 | 69.07463 | 34835 ft | 429 kts | 270° |
| 2026-04-18 12:15 | 22.92076 | 69.01017 | 34834 ft | 428 kts | 270° |
| 2026-04-18 12:15 | 22.92465 | 68.94558 | 34972 ft | 429 kts | 270° |
| 2026-04-18 12:15 | 22.92657 | 68.91366 | 35192 ft | 429 kts | 270° |
| 2026-04-18 12:16 | 22.92852 | 68.88106 | 35413 ft | 428 kts | 270° |
| 2026-04-18 12:16 | 22.93044 | 68.84885 | 35645 ft | 427 kts | 270° |
| 2026-04-18 12:16 | 22.93233 | 68.81718 | 35836 ft | 426 kts | 270° |
| 2026-04-18 12:17 | 22.93611 | 68.75319 | 35815 ft | 422 kts | 270° |
| 2026-04-18 12:17 | 22.93985 | 68.68956 | 35845 ft | 423 kts | 270° |
| 2026-04-18 12:18 | 22.94356 | 68.62593 | 35849 ft | 423 kts | 270° |
| 2026-04-18 12:18 | 22.94725 | 68.56227 | 35841 ft | 423 kts | 270° |
| 2026-04-18 12:19 | 22.95089 | 68.49907 | 35854 ft | 422 kts | 270° |
| 2026-04-18 12:19 | 22.95452 | 68.43554 | 35838 ft | 422 kts | 270° |
| 2026-04-18 12:20 | 22.95738 | 68.37199 | 35844 ft | 420 kts | 266° |
| 2026-04-18 12:20 | 22.95718 | 68.30857 | 35844 ft | 421 kts | 266° |
| 2026-04-18 12:21 | 22.95730 | 68.24515 | 35843 ft | 421 kts | 266° |
| 2026-04-18 12:21 | 22.95744 | 68.18209 | 35854 ft | 421 kts | 266° |
| 2026-04-18 12:22 | 22.95757 | 68.11867 | 35846 ft | 421 kts | 266° |
| 2026-04-18 12:22 | 22.95767 | 68.05521 | 35843 ft | 421 kts | 266° |
| 2026-04-18 12:23 | 22.95774 | 67.99176 | 35846 ft | 420 kts | 266° |
| 2026-04-18 12:23 | 22.95779 | 67.92875 | 35847 ft | 420 kts | 266° |
| 2026-04-18 12:24 | 22.95787 | 67.86532 | 35843 ft | 421 kts | 266° |
| 2026-04-18 12:24 | 22.95803 | 67.80182 | 35846 ft | 421 kts | 266° |
| 2026-04-18 12:25 | 22.95816 | 67.73838 | 35852 ft | 421 kts | 266° |
| 2026-04-18 12:25 | 22.95827 | 67.67493 | 35850 ft | 421 kts | 266° |
| 2026-04-18 12:26 | 22.95836 | 67.61180 | 35852 ft | 421 kts | 266° |
| 2026-04-18 12:26 | 22.95842 | 67.54857 | 35850 ft | 421 kts | 266° |
| 2026-04-18 12:27 | 22.95845 | 67.48505 | 35859 ft | 421 kts | 266° |
| 2026-04-18 12:27 | 22.95846 | 67.42148 | 35845 ft | 421 kts | 266° |
| 2026-04-18 12:28 | 22.95844 | 67.35793 | 35858 ft | 421 kts | 266° |
| 2026-04-18 12:28 | 22.95840 | 67.29434 | 35852 ft | 421 kts | 266° |
| 2026-04-18 12:29 | 22.95834 | 67.23120 | 35853 ft | 421 kts | 266° |
| 2026-04-18 12:29 | 22.95824 | 67.16760 | 35855 ft | 422 kts | 266° |
| 2026-04-18 12:30 | 22.95813 | 67.10382 | 35854 ft | 423 kts | 266° |
| 2026-04-18 12:30 | 22.95798 | 67.04006 | 35862 ft | 423 kts | 266° |
| 2026-04-18 12:31 | 22.95783 | 66.97627 | 35855 ft | 423 kts | 267° |
| 2026-04-18 12:31 | 22.95825 | 66.91282 | 35854 ft | 423 kts | 267° |
| 2026-04-18 12:32 | 22.95865 | 66.84895 | 35855 ft | 424 kts | 267° |
| 2026-04-18 12:32 | 22.95901 | 66.78498 | 35853 ft | 424 kts | 267° |
| 2026-04-18 12:33 | 22.95935 | 66.72100 | 35857 ft | 424 kts | 267° |
| 2026-04-18 12:33 | 22.95966 | 66.65746 | 35855 ft | 424 kts | 267° |
| 2026-04-18 12:34 | 22.95995 | 66.59351 | 35854 ft | 424 kts | 267° |
| 2026-04-18 12:34 | 22.96021 | 66.52954 | 35856 ft | 424 kts | 267° |
| 2026-04-18 12:35 | 22.96044 | 66.46556 | 35854 ft | 424 kts | 267° |
| 2026-04-18 12:35 | 22.96065 | 66.40201 | 35854 ft | 424 kts | 267° |
| 2026-04-18 12:36 | 22.96084 | 66.33804 | 35854 ft | 424 kts | 267° |
| 2026-04-18 12:36 | 22.96100 | 66.27406 | 35857 ft | 424 kts | 267° |
| 2026-04-18 12:37 | 22.96113 | 66.21005 | 35860 ft | 424 kts | 267° |
| 2026-04-18 12:37 | 22.96124 | 66.14617 | 35857 ft | 424 kts | 267° |
| 2026-04-18 12:38 | 22.96132 | 66.08266 | 35857 ft | 424 kts | 267° |
| 2026-04-18 12:38 | 22.96137 | 66.01873 | 35857 ft | 424 kts | 267° |
| 2026-04-18 12:39 | 22.96141 | 65.95480 | 35857 ft | 424 kts | 267° |
| 2026-04-18 12:39 | 22.96141 | 65.89088 | 35857 ft | 423 kts | 267° |
| 2026-04-18 12:40 | 22.96139 | 65.82750 | 35857 ft | 423 kts | 267° |
| 2026-04-18 12:40 | 22.96134 | 65.76367 | 35856 ft | 423 kts | 267° |
| 2026-04-18 12:41 | 22.96127 | 65.69986 | 35857 ft | 423 kts | 267° |
| 2026-04-18 12:41 | 22.96118 | 65.63605 | 35857 ft | 423 kts | 267° |
| 2026-04-18 12:42 | 22.96105 | 65.57223 | 35859 ft | 422 kts | 267° |
| 2026-04-18 12:42 | 22.96091 | 65.50899 | 35859 ft | 422 kts | 267° |
| 2026-04-18 12:43 | 22.96073 | 65.44531 | 35853 ft | 422 kts | 267° |
| 2026-04-18 12:43 | 22.96054 | 65.38165 | 35855 ft | 422 kts | 267° |
| 2026-04-18 12:44 | 22.96031 | 65.31796 | 35857 ft | 422 kts | 267° |
| 2026-04-18 12:44 | 22.96007 | 65.25476 | 35856 ft | 421 kts | 267° |
| 2026-04-18 12:45 | 22.95979 | 65.19128 | 35862 ft | 421 kts | 267° |
| 2026-04-18 12:45 | 22.95949 | 65.12774 | 35857 ft | 422 kts | 267° |
| 2026-04-18 12:46 | 22.95917 | 65.06407 | 35862 ft | 422 kts | 267° |
| 2026-04-18 12:46 | 22.95882 | 65.00041 | 35856 ft | 422 kts | 267° |
| 2026-04-18 12:47 | 22.95846 | 64.93714 | 35856 ft | 421 kts | 267° |
| 2026-04-18 12:47 | 22.95807 | 64.87365 | 35858 ft | 421 kts | 267° |
| 2026-04-18 12:48 | 22.96049 | 64.81015 | 35866 ft | 422 kts | 273° |
| 2026-04-18 12:48 | 22.96706 | 64.74667 | 35850 ft | 423 kts | 273° |
| 2026-04-18 12:49 | 22.97374 | 64.68364 | 35858 ft | 424 kts | 274° |
| 2026-04-18 12:49 | 22.98047 | 64.62014 | 35855 ft | 423 kts | 274° |
| 2026-04-18 12:50 | 22.98717 | 64.55666 | 35860 ft | 424 kts | 273° |
| 2026-04-18 12:50 | 22.99385 | 64.49312 | 35860 ft | 424 kts | 273° |
| 2026-04-18 12:51 | 23.00050 | 64.42964 | 35857 ft | 423 kts | 273° |
| 2026-04-18 12:51 | 23.00708 | 64.36657 | 35859 ft | 423 kts | 273° |
| 2026-04-18 12:52 | 23.01368 | 64.30313 | 35862 ft | 422 kts | 274° |
| 2026-04-18 12:52 | 23.02023 | 64.23983 | 35861 ft | 422 kts | 274° |
| 2026-04-18 12:53 | 23.02676 | 64.17649 | 35858 ft | 422 kts | 273° |
| 2026-04-18 12:53 | 23.03322 | 64.11360 | 35858 ft | 422 kts | 273° |
| 2026-04-18 12:54 | 23.03970 | 64.05025 | 35858 ft | 422 kts | 273° |
| 2026-04-18 12:54 | 23.04614 | 63.98702 | 35854 ft | 421 kts | 274° |
| 2026-04-18 12:55 | 23.05255 | 63.92392 | 35858 ft | 421 kts | 274° |
| 2026-04-18 12:55 | 23.05799 | 63.86080 | 35848 ft | 418 kts | 267° |
| 2026-04-18 12:56 | 23.05791 | 63.79804 | 35852 ft | 419 kts | 268° |
| 2026-04-18 12:56 | 23.05855 | 63.73479 | 35859 ft | 419 kts | 269° |
| 2026-04-18 12:57 | 23.05928 | 63.67161 | 35856 ft | 418 kts | 269° |
| 2026-04-18 12:57 | 23.06001 | 63.60841 | 35856 ft | 419 kts | 269° |
| 2026-04-18 12:58 | 23.06070 | 63.54567 | 35856 ft | 418 kts | 269° |
| 2026-04-18 12:58 | 23.06137 | 63.48246 | 35855 ft | 418 kts | 269° |
| 2026-04-18 12:59 | 23.06202 | 63.41928 | 35864 ft | 418 kts | 269° |
| 2026-04-18 12:59 | 23.06264 | 63.35609 | 35856 ft | 418 kts | 269° |
| 2026-04-18 13:00 | 23.06324 | 63.29293 | 35857 ft | 418 kts | 269° |
| 2026-04-18 13:00 | 23.06381 | 63.22974 | 35857 ft | 418 kts | 269° |
| 2026-04-18 13:01 | 23.06435 | 63.16701 | 35857 ft | 418 kts | 269° |
| 2026-04-18 13:01 | 23.06487 | 63.10386 | 35858 ft | 418 kts | 269° |
| 2026-04-18 13:02 | 23.06537 | 63.04082 | 35856 ft | 417 kts | 269° |
| 2026-04-18 13:02 | 23.06584 | 62.97778 | 35858 ft | 417 kts | 269° |
| 2026-04-18 13:03 | 23.06628 | 62.91518 | 35856 ft | 417 kts | 269° |
| 2026-04-18 13:03 | 23.06690 | 62.82061 | 35854 ft | 417 kts | 269° |
| 2026-04-18 13:04 | 23.06729 | 62.75756 | 35857 ft | 418 kts | 269° |
| 2026-04-18 13:04 | 23.06765 | 62.69452 | 35856 ft | 417 kts | 269° |
| 2026-04-18 13:05 | 23.06798 | 62.63189 | 35857 ft | 417 kts | 269° |
| 2026-04-18 13:05 | 23.06828 | 62.56886 | 35857 ft | 417 kts | 269° |
| 2026-04-18 13:06 | 23.06857 | 62.50583 | 35864 ft | 419 kts | 269° |
| 2026-04-18 13:06 | 23.06883 | 62.44235 | 35860 ft | 421 kts | 269° |
| 2026-04-18 13:07 | 23.06906 | 62.37900 | 35856 ft | 421 kts | 269° |
| 2026-04-18 13:07 | 23.06927 | 62.31580 | 35856 ft | 421 kts | 269° |
| 2026-04-18 13:08 | 23.06946 | 62.25212 | 35857 ft | 421 kts | 269° |
| 2026-04-18 13:08 | 23.06961 | 62.18866 | 35854 ft | 421 kts | 269° |
| 2026-04-18 13:09 | 23.06975 | 62.12516 | 35857 ft | 422 kts | 269° |
| 2026-04-18 13:09 | 23.06986 | 62.06146 | 35856 ft | 422 kts | 269° |
| 2026-04-18 13:10 | 23.06994 | 61.99779 | 35857 ft | 422 kts | 269° |
| 2026-04-18 13:10 | 23.07000 | 61.93413 | 35856 ft | 421 kts | 269° |
| 2026-04-18 13:11 | 23.07004 | 61.87062 | 35856 ft | 422 kts | 269° |
| 2026-04-18 13:11 | 23.07006 | 61.80707 | 35856 ft | 422 kts | 269° |
| 2026-04-18 13:12 | 23.07004 | 61.74344 | 35857 ft | 422 kts | 269° |
| 2026-04-18 13:12 | 23.06991 | 61.67974 | 35856 ft | 422 kts | 269° |
| 2026-04-18 13:13 | 23.06978 | 61.61581 | 35857 ft | 422 kts | 269° |
| 2026-04-18 13:13 | 23.06963 | 61.55231 | 35856 ft | 422 kts | 269° |
| 2026-04-18 13:14 | 23.06928 | 61.48853 | 35853 ft | 422 kts | 265° |
| 2026-04-18 13:14 | 23.06172 | 61.42587 | 35856 ft | 422 kts | 262° |
| 2026-04-18 13:15 | 23.05350 | 61.36280 | 35857 ft | 422 kts | 262° |
| 2026-04-18 13:15 | 23.04517 | 61.29967 | 35855 ft | 423 kts | 262° |
| 2026-04-18 13:16 | 23.03681 | 61.23648 | 35857 ft | 423 kts | 262° |
| 2026-04-18 13:16 | 23.02847 | 61.17369 | 35857 ft | 423 kts | 262° |
| 2026-04-18 13:17 | 23.02005 | 61.11048 | 35856 ft | 423 kts | 262° |
| 2026-04-18 13:17 | 23.01161 | 61.04729 | 35857 ft | 423 kts | 262° |
| 2026-04-18 13:18 | 23.00312 | 60.98400 | 35857 ft | 425 kts | 262° |
| 2026-04-18 13:18 | 22.99461 | 60.92058 | 35857 ft | 424 kts | 262° |
| 2026-04-18 13:19 | 22.98615 | 60.85764 | 35855 ft | 424 kts | 262° |
| 2026-04-18 13:19 | 22.97760 | 60.79426 | 35857 ft | 425 kts | 262° |
| 2026-04-18 13:20 | 22.96903 | 60.73084 | 35854 ft | 425 kts | 262° |
| 2026-04-18 13:20 | 22.96043 | 60.66743 | 35857 ft | 425 kts | 262° |
| 2026-04-18 13:21 | 22.95326 | 60.61472 | 35855 ft | 425 kts | 262° |
| 2026-04-18 13:21 | 22.94321 | 60.54103 | 35857 ft | 425 kts | 262° |
| 2026-04-18 13:22 | 22.93453 | 60.47766 | 35853 ft | 425 kts | 262° |
| 2026-04-18 13:22 | 22.92731 | 60.42502 | 35856 ft | 424 kts | 262° |
| 2026-04-18 13:23 | 22.91860 | 60.36173 | 35861 ft | 424 kts | 262° |
| 2026-04-18 13:23 | 22.90987 | 60.29846 | 35857 ft | 424 kts | 262° |
| 2026-04-18 13:24 | 22.90110 | 60.23518 | 35856 ft | 424 kts | 262° |
| 2026-04-18 13:24 | 22.89223 | 60.17185 | 35857 ft | 426 kts | 262° |
| 2026-04-18 13:25 | 22.88340 | 60.10894 | 35854 ft | 424 kts | 262° |
| 2026-04-18 13:25 | 22.87451 | 60.04581 | 35857 ft | 424 kts | 262° |
| 2026-04-18 13:26 | 22.86558 | 59.98262 | 35857 ft | 424 kts | 262° |
| 2026-04-18 13:26 | 22.85664 | 59.91949 | 35855 ft | 424 kts | 262° |
| 2026-04-18 13:27 | 22.84786 | 59.85681 | 35860 ft | 422 kts | 263° |
| 2026-04-18 13:27 | 22.83913 | 59.79400 | 35856 ft | 421 kts | 263° |
| 2026-04-18 13:28 | 22.83039 | 59.73129 | 35857 ft | 421 kts | 263° |
| 2026-04-18 13:28 | 22.82163 | 59.66860 | 35857 ft | 421 kts | 263° |
| 2026-04-18 13:29 | 22.81283 | 59.60586 | 35857 ft | 421 kts | 263° |
| 2026-04-18 13:29 | 22.80407 | 59.54355 | 35867 ft | 422 kts | 263° |
| 2026-04-18 13:30 | 22.79520 | 59.48070 | 35873 ft | 421 kts | 263° |
| 2026-04-18 13:30 | 22.78632 | 59.41790 | 35873 ft | 421 kts | 263° |
| 2026-04-18 13:31 | 22.77744 | 59.35542 | 35873 ft | 421 kts | 263° |
| 2026-04-18 13:31 | 22.76848 | 59.29264 | 35858 ft | 422 kts | 263° |
| 2026-04-18 13:32 | 22.75942 | 59.22950 | 35877 ft | 425 kts | 263° |
| 2026-04-18 13:32 | 22.75039 | 59.16637 | 35874 ft | 424 kts | 262° |
| 2026-04-18 13:33 | 22.74134 | 59.10362 | 35893 ft | 424 kts | 263° |
| 2026-04-18 13:33 | 22.73224 | 59.04056 | 35901 ft | 424 kts | 263° |
| 2026-04-18 13:34 | 22.72310 | 58.97746 | 35874 ft | 423 kts | 263° |
| 2026-04-18 13:34 | 22.71395 | 58.91443 | 35864 ft | 423 kts | 263° |
| 2026-04-18 13:35 | 22.70477 | 58.85137 | 35871 ft | 423 kts | 263° |
| 2026-04-18 13:35 | 22.69562 | 58.78873 | 35859 ft | 423 kts | 263° |
| 2026-04-18 13:36 | 22.68641 | 58.72579 | 35856 ft | 423 kts | 263° |
| 2026-04-18 13:36 | 22.67716 | 58.66283 | 35852 ft | 423 kts | 263° |
| 2026-04-18 13:37 | 22.67333 | 58.59979 | 35829 ft | 417 kts | 282° |
| 2026-04-18 13:37 | 22.68748 | 58.53865 | 35832 ft | 420 kts | 285° |
| 2026-04-18 13:38 | 22.70288 | 58.47764 | 35849 ft | 420 kts | 285° |
| 2026-04-18 13:38 | 22.71868 | 58.41689 | 35851 ft | 418 kts | 286° |
| 2026-04-18 13:39 | 22.73443 | 58.35660 | 35849 ft | 418 kts | 286° |
| 2026-04-18 13:39 | 22.75026 | 58.29597 | 35863 ft | 418 kts | 286° |
| 2026-04-18 13:40 | 22.76607 | 58.23529 | 35873 ft | 418 kts | 286° |
| 2026-04-18 13:40 | 22.78185 | 58.17462 | 35866 ft | 417 kts | 286° |
| 2026-04-18 13:41 | 22.79754 | 58.11419 | 35859 ft | 416 kts | 286° |
| 2026-04-18 13:41 | 22.81319 | 58.05380 | 35860 ft | 416 kts | 286° |
| 2026-04-18 13:42 | 22.82873 | 57.99377 | 35875 ft | 416 kts | 286° |
| 2026-04-18 13:42 | 22.84435 | 57.93331 | 35874 ft | 416 kts | 286° |
| 2026-04-18 13:43 | 22.85994 | 57.87288 | 35876 ft | 416 kts | 286° |
| 2026-04-18 13:43 | 22.87552 | 57.81239 | 35871 ft | 416 kts | 286° |
| 2026-04-18 13:44 | 22.89086 | 57.75218 | 35888 ft | 416 kts | 286° |
| 2026-04-18 13:44 | 22.90599 | 57.69152 | 35896 ft | 417 kts | 286° |
| 2026-04-18 13:45 | 22.92115 | 57.63078 | 35903 ft | 416 kts | 286° |
| 2026-04-18 13:45 | 22.93621 | 57.57036 | 35913 ft | 413 kts | 286° |
| 2026-04-18 13:46 | 22.95122 | 57.51000 | 35914 ft | 414 kts | 286° |
| 2026-04-18 13:46 | 22.96609 | 57.45012 | 35920 ft | 414 kts | 286° |
| 2026-04-18 13:47 | 22.98105 | 57.38976 | 35917 ft | 414 kts | 286° |
| 2026-04-18 13:47 | 22.99355 | 57.32894 | 35911 ft | 415 kts | 273° |
| 2026-04-18 13:48 | 22.99062 | 57.29778 | 35928 ft | 420 kts | 258° |
| 2026-04-18 13:48 | 22.98020 | 57.26789 | 35936 ft | 427 kts | 249° |
| 2026-04-18 13:48 | 22.95435 | 57.20999 | 35911 ft | 430 kts | 248° |
| 2026-04-18 13:49 | 22.92724 | 57.15215 | 35918 ft | 431 kts | 247° |
| 2026-04-18 13:49 | 22.91348 | 57.12324 | 36107 ft | 431 kts | 247° |
| 2026-04-18 13:49 | 22.89969 | 57.09434 | 36289 ft | 432 kts | 248° |
| 2026-04-18 13:50 | 22.88587 | 57.06544 | 36477 ft | 432 kts | 248° |
| 2026-04-18 13:50 | 22.87203 | 57.03653 | 36666 ft | 432 kts | 248° |
| 2026-04-18 13:50 | 22.85821 | 57.00765 | 36848 ft | 432 kts | 248° |
| 2026-04-18 13:50 | 22.84436 | 56.97875 | 37026 ft | 431 kts | 248° |
| 2026-04-18 13:51 | 22.83055 | 56.94994 | 37233 ft | 431 kts | 248° |
| 2026-04-18 13:51 | 22.81692 | 56.92151 | 37453 ft | 430 kts | 248° |
| 2026-04-18 13:51 | 22.80316 | 56.89282 | 37676 ft | 428 kts | 248° |
| 2026-04-18 13:51 | 22.78945 | 56.86425 | 37876 ft | 427 kts | 248° |
| 2026-04-18 13:52 | 22.76201 | 56.80713 | 37892 ft | 427 kts | 248° |
| 2026-04-18 13:52 | 22.73457 | 56.75006 | 37908 ft | 428 kts | 248° |
| 2026-04-18 13:53 | 22.70709 | 56.69298 | 37902 ft | 427 kts | 248° |
| 2026-04-18 13:53 | 22.67959 | 56.63592 | 37902 ft | 427 kts | 248° |
| 2026-04-18 13:54 | 22.65223 | 56.57921 | 37900 ft | 427 kts | 248° |
| 2026-04-18 13:54 | 22.62471 | 56.52224 | 37894 ft | 425 kts | 249° |
| 2026-04-18 13:55 | 22.59733 | 56.46562 | 37898 ft | 425 kts | 249° |
| 2026-04-18 13:55 | 22.56996 | 56.40909 | 37894 ft | 425 kts | 249° |
| 2026-04-18 13:56 | 22.54267 | 56.35272 | 37892 ft | 425 kts | 249° |
| 2026-04-18 13:56 | 22.51515 | 56.29592 | 37878 ft | 425 kts | 249° |
| 2026-04-18 13:57 | 22.48770 | 56.23931 | 37893 ft | 425 kts | 249° |
| 2026-04-18 13:57 | 22.46033 | 56.18295 | 37891 ft | 425 kts | 249° |
| 2026-04-18 13:58 | 22.43293 | 56.12657 | 37892 ft | 425 kts | 249° |
| 2026-04-18 13:58 | 22.40532 | 56.06984 | 37890 ft | 425 kts | 249° |
| 2026-04-18 13:59 | 22.37789 | 56.01359 | 37890 ft | 425 kts | 249° |
| 2026-04-18 13:59 | 22.35016 | 55.95705 | 37889 ft | 425 kts | 249° |
| 2026-04-18 14:00 | 22.32248 | 55.90068 | 37889 ft | 425 kts | 249° |
| 2026-04-18 14:00 | 22.29480 | 55.84437 | 37890 ft | 425 kts | 249° |
| 2026-04-18 14:01 | 22.26701 | 55.78787 | 37889 ft | 425 kts | 249° |
| 2026-04-18 14:01 | 22.23932 | 55.73144 | 37887 ft | 425 kts | 250° |
| 2026-04-18 14:02 | 22.21158 | 55.67496 | 37886 ft | 425 kts | 250° |
| 2026-04-18 14:02 | 22.18404 | 55.61895 | 37886 ft | 425 kts | 250° |
| 2026-04-18 14:03 | 22.16298 | 55.56096 | 37864 ft | 401 kts | 271° |
| 2026-04-18 14:03 | 22.16364 | 55.50151 | 37858 ft | 396 kts | 279° |
| 2026-04-18 14:04 | 22.16736 | 55.44245 | 37882 ft | 393 kts | 280° |
| 2026-04-18 14:04 | 22.17187 | 55.38373 | 37887 ft | 393 kts | 281° |
| 2026-04-18 14:05 | 22.17663 | 55.32504 | 37886 ft | 393 kts | 281° |
| 2026-04-18 14:05 | 22.18139 | 55.26666 | 37883 ft | 392 kts | 281° |
| 2026-04-18 14:06 | 22.18613 | 55.20809 | 37883 ft | 389 kts | 281° |
| 2026-04-18 14:06 | 22.19081 | 55.15020 | 37881 ft | 389 kts | 281° |
| 2026-04-18 14:07 | 22.19547 | 55.09219 | 37895 ft | 389 kts | 281° |
| 2026-04-18 14:07 | 22.20013 | 55.03399 | 37877 ft | 388 kts | 281° |
| 2026-04-18 14:08 | 22.20704 | 54.94705 | 37876 ft | 386 kts | 281° |
| 2026-04-18 14:09 | 22.21160 | 54.88951 | 37885 ft | 386 kts | 281° |
| 2026-04-18 14:09 | 22.21616 | 54.83165 | 37878 ft | 386 kts | 281° |
| 2026-04-18 14:10 | 22.22069 | 54.77389 | 37906 ft | 387 kts | 281° |
| 2026-04-18 14:10 | 22.22521 | 54.71591 | 37876 ft | 387 kts | 281° |
| 2026-04-18 14:11 | 22.22969 | 54.65835 | 37875 ft | 387 kts | 281° |
| 2026-04-18 14:11 | 22.23419 | 54.60021 | 37886 ft | 387 kts | 281° |
| 2026-04-18 14:12 | 22.23862 | 54.54257 | 37890 ft | 387 kts | 281° |
| 2026-04-18 14:12 | 22.24306 | 54.48459 | 37879 ft | 387 kts | 281° |
| 2026-04-18 14:13 | 22.24747 | 54.42685 | 37879 ft | 385 kts | 281° |
| 2026-04-18 14:13 | 22.25186 | 54.36911 | 37885 ft | 386 kts | 281° |
| 2026-04-18 14:14 | 22.25621 | 54.31142 | 37887 ft | 385 kts | 281° |
| 2026-04-18 14:14 | 22.26053 | 54.25395 | 37878 ft | 385 kts | 281° |
| 2026-04-18 14:15 | 22.26484 | 54.19641 | 37879 ft | 385 kts | 281° |
| 2026-04-18 14:15 | 22.26912 | 54.13895 | 37878 ft | 384 kts | 281° |
| 2026-04-18 14:16 | 22.27338 | 54.08142 | 37875 ft | 384 kts | 281° |
| 2026-04-18 14:16 | 22.27764 | 54.02381 | 37872 ft | 384 kts | 281° |
| 2026-04-18 14:17 | 22.28186 | 53.96634 | 37897 ft | 384 kts | 281° |
| 2026-04-18 14:17 | 22.28814 | 53.88020 | 37890 ft | 384 kts | 281° |
| 2026-04-18 14:18 | 22.29439 | 53.79392 | 37872 ft | 384 kts | 281° |
| 2026-04-18 14:19 | 22.30058 | 53.70785 | 37876 ft | 382 kts | 281° |
| 2026-04-18 14:20 | 22.30670 | 53.62210 | 37885 ft | 382 kts | 281° |
| 2026-04-18 14:20 | 22.31074 | 53.56510 | 37887 ft | 382 kts | 281° |
| 2026-04-18 14:21 | 22.31478 | 53.50780 | 37889 ft | 382 kts | 281° |
| 2026-04-18 14:21 | 22.31881 | 53.45042 | 37886 ft | 382 kts | 281° |
| 2026-04-18 14:22 | 22.32478 | 53.36492 | 37883 ft | 382 kts | 281° |
| 2026-04-18 14:23 | 22.33072 | 53.27912 | 37887 ft | 382 kts | 281° |
| 2026-04-18 14:23 | 22.33595 | 53.20307 | 37883 ft | 380 kts | 281° |
| 2026-04-18 14:24 | 22.34177 | 53.11773 | 37885 ft | 381 kts | 281° |
| 2026-04-18 14:25 | 22.34564 | 53.06057 | 37885 ft | 381 kts | 281° |
| 2026-04-18 14:25 | 22.34949 | 53.00358 | 37870 ft | 381 kts | 281° |
| 2026-04-18 14:26 | 22.35332 | 52.94648 | 37877 ft | 379 kts | 281° |
| 2026-04-18 14:26 | 22.35711 | 52.88959 | 37888 ft | 380 kts | 281° |
| 2026-04-18 14:27 | 22.36087 | 52.83298 | 37886 ft | 379 kts | 281° |
| 2026-04-18 14:27 | 22.36463 | 52.77610 | 37884 ft | 380 kts | 280° |
| 2026-04-18 14:28 | 22.36838 | 52.71897 | 37881 ft | 378 kts | 280° |
| 2026-04-18 14:28 | 22.37208 | 52.66243 | 37884 ft | 378 kts | 280° |
| 2026-04-18 14:29 | 22.37575 | 52.60585 | 37883 ft | 378 kts | 280° |
| 2026-04-18 14:29 | 22.37940 | 52.54942 | 37882 ft | 378 kts | 280° |
| 2026-04-18 14:30 | 22.38306 | 52.49251 | 37878 ft | 377 kts | 280° |
| 2026-04-18 14:30 | 22.38665 | 52.43638 | 37874 ft | 377 kts | 280° |
| 2026-04-18 14:31 | 22.39025 | 52.37980 | 37890 ft | 377 kts | 280° |
| 2026-04-18 14:31 | 22.39385 | 52.32315 | 37881 ft | 378 kts | 280° |
| 2026-04-18 14:32 | 22.39741 | 52.26660 | 37867 ft | 378 kts | 280° |
| 2026-04-18 14:32 | 22.40095 | 52.21009 | 37875 ft | 377 kts | 280° |
| 2026-04-18 14:33 | 22.40447 | 52.15358 | 37878 ft | 377 kts | 280° |
| 2026-04-18 14:33 | 22.40891 | 52.09708 | 37876 ft | 376 kts | 281° |
| 2026-04-18 14:34 | 22.41354 | 52.04089 | 37867 ft | 376 kts | 281° |
| 2026-04-18 14:34 | 22.41811 | 51.98503 | 37865 ft | 375 kts | 281° |
| 2026-04-18 14:35 | 22.42271 | 51.92858 | 37869 ft | 375 kts | 281° |
| 2026-04-18 14:35 | 22.42728 | 51.87237 | 37876 ft | 375 kts | 281° |
| 2026-04-18 14:36 | 22.43180 | 51.81634 | 37877 ft | 375 kts | 281° |
| 2026-04-18 14:36 | 22.43629 | 51.76050 | 37873 ft | 374 kts | 281° |
| 2026-04-18 14:37 | 22.44080 | 51.70417 | 37871 ft | 374 kts | 281° |
| 2026-04-18 14:37 | 22.44525 | 51.64836 | 37893 ft | 374 kts | 281° |
| 2026-04-18 14:38 | 22.44971 | 51.59214 | 37869 ft | 374 kts | 281° |
| 2026-04-18 14:38 | 22.45412 | 51.53631 | 37868 ft | 374 kts | 281° |
| 2026-04-18 14:39 | 22.45852 | 51.48042 | 37873 ft | 374 kts | 281° |
| 2026-04-18 14:39 | 22.46291 | 51.42444 | 37874 ft | 374 kts | 281° |
| 2026-04-18 14:40 | 22.46726 | 51.36861 | 37874 ft | 374 kts | 281° |
| 2026-04-18 14:40 | 22.47161 | 51.31260 | 37865 ft | 374 kts | 280° |
| 2026-04-18 14:41 | 22.47593 | 51.25658 | 37870 ft | 374 kts | 280° |
| 2026-04-18 14:41 | 22.48026 | 51.20034 | 37871 ft | 374 kts | 280° |
| 2026-04-18 14:42 | 22.48453 | 51.14461 | 37870 ft | 374 kts | 281° |
| 2026-04-18 14:42 | 22.48880 | 51.08857 | 37873 ft | 374 kts | 280° |
| 2026-04-18 14:43 | 22.49305 | 51.03258 | 37866 ft | 374 kts | 280° |
| 2026-04-18 14:43 | 22.49728 | 50.97654 | 37866 ft | 374 kts | 280° |
| 2026-04-18 14:44 | 22.50149 | 50.92048 | 37873 ft | 374 kts | 280° |
| 2026-04-18 14:44 | 22.50569 | 50.86442 | 37862 ft | 374 kts | 280° |
| 2026-04-18 14:45 | 22.50983 | 50.80878 | 37866 ft | 373 kts | 280° |
| 2026-04-18 14:45 | 22.51401 | 50.75245 | 37869 ft | 373 kts | 280° |
| 2026-04-18 14:46 | 22.51811 | 50.69685 | 37871 ft | 373 kts | 280° |
| 2026-04-18 14:46 | 22.52224 | 50.64059 | 37858 ft | 374 kts | 280° |
| 2026-04-18 14:47 | 22.52633 | 50.58460 | 37865 ft | 373 kts | 280° |
| 2026-04-18 14:47 | 22.53038 | 50.52889 | 37864 ft | 373 kts | 280° |
| 2026-04-18 14:48 | 22.53444 | 50.47287 | 37865 ft | 373 kts | 280° |
| 2026-04-18 14:48 | 22.53847 | 50.41690 | 37848 ft | 373 kts | 280° |
| 2026-04-18 14:49 | 22.54249 | 50.36085 | 37863 ft | 373 kts | 280° |
| 2026-04-18 14:49 | 22.54646 | 50.30510 | 37863 ft | 373 kts | 280° |
| 2026-04-18 14:50 | 22.55045 | 50.24892 | 37865 ft | 373 kts | 280° |
| 2026-04-18 14:50 | 22.55439 | 50.19307 | 37855 ft | 373 kts | 279° |
| 2026-04-18 14:51 | 22.55831 | 50.13733 | 37861 ft | 373 kts | 279° |
| 2026-04-18 14:51 | 22.56222 | 50.08137 | 37861 ft | 373 kts | 279° |
| 2026-04-18 14:52 | 22.56611 | 50.02545 | 37864 ft | 373 kts | 279° |
| 2026-04-18 14:52 | 22.56998 | 49.96957 | 37851 ft | 373 kts | 279° |
| 2026-04-18 14:53 | 22.57384 | 49.91359 | 37861 ft | 373 kts | 279° |
| 2026-04-18 14:53 | 22.57767 | 49.85767 | 37864 ft | 373 kts | 279° |
| 2026-04-18 14:54 | 22.58148 | 49.80171 | 37861 ft | 373 kts | 279° |
| 2026-04-18 14:54 | 22.58526 | 49.74612 | 37846 ft | 373 kts | 279° |
| 2026-04-18 14:55 | 22.58842 | 49.69919 | 37858 ft | 373 kts | 279° |
| 2026-04-18 14:55 | 22.59280 | 49.63402 | 37861 ft | 373 kts | 279° |
| 2026-04-18 14:56 | 22.59654 | 49.57800 | 37883 ft | 373 kts | 279° |
| 2026-04-18 14:56 | 22.60025 | 49.52211 | 37849 ft | 372 kts | 279° |
| 2026-04-18 14:57 | 22.60393 | 49.46655 | 37859 ft | 372 kts | 279° |
| 2026-04-18 14:57 | 22.60760 | 49.41063 | 37857 ft | 372 kts | 279° |
| 2026-04-18 14:58 | 22.61126 | 49.35466 | 37860 ft | 372 kts | 279° |
| 2026-04-18 14:58 | 22.61489 | 49.29883 | 37852 ft | 372 kts | 279° |
| 2026-04-18 14:59 | 22.61850 | 49.24298 | 37858 ft | 372 kts | 279° |
| 2026-04-18 14:59 | 22.62209 | 49.18722 | 37865 ft | 372 kts | 279° |
| 2026-04-18 15:00 | 22.62565 | 49.13148 | 37861 ft | 372 kts | 279° |
| 2026-04-18 15:00 | 22.62921 | 49.07557 | 37845 ft | 372 kts | 278° |
| 2026-04-18 15:01 | 22.63274 | 49.01975 | 37858 ft | 373 kts | 278° |
| 2026-04-18 15:01 | 22.63627 | 48.96369 | 37859 ft | 373 kts | 278° |
| 2026-04-18 15:02 | 22.63978 | 48.90772 | 37876 ft | 373 kts | 278° |
| 2026-04-18 15:02 | 22.64324 | 48.85210 | 37859 ft | 372 kts | 278° |
| 2026-04-18 15:03 | 22.64670 | 48.79620 | 37860 ft | 372 kts | 278° |
| 2026-04-18 15:03 | 22.65015 | 48.74006 | 37861 ft | 372 kts | 278° |
| 2026-04-18 15:04 | 22.65355 | 48.68451 | 37862 ft | 372 kts | 278° |
| 2026-04-18 15:04 | 22.65695 | 48.62869 | 37852 ft | 372 kts | 278° |
| 2026-04-18 15:05 | 22.66034 | 48.57254 | 37861 ft | 372 kts | 278° |
| 2026-04-18 15:05 | 22.66371 | 48.51655 | 37860 ft | 372 kts | 278° |
| 2026-04-18 15:06 | 22.66705 | 48.46067 | 37859 ft | 372 kts | 278° |
| 2026-04-18 15:06 | 22.67038 | 48.40478 | 37855 ft | 373 kts | 278° |
| 2026-04-18 15:07 | 22.67370 | 48.34862 | 37859 ft | 373 kts | 278° |
| 2026-04-18 15:07 | 22.67699 | 48.29277 | 37859 ft | 373 kts | 278° |
| 2026-04-18 15:08 | 22.68027 | 48.23683 | 37875 ft | 373 kts | 278° |
| 2026-04-18 15:08 | 22.68353 | 48.18072 | 37866 ft | 373 kts | 278° |
| 2026-04-18 15:09 | 22.68678 | 48.12465 | 37860 ft | 373 kts | 278° |
| 2026-04-18 15:09 | 22.69000 | 48.06859 | 37862 ft | 373 kts | 278° |
| 2026-04-18 15:10 | 22.69418 | 48.01281 | 37855 ft | 372 kts | 279° |
| 2026-04-18 15:10 | 22.69888 | 47.95708 | 37867 ft | 373 kts | 279° |
| 2026-04-18 15:11 | 22.70354 | 47.90126 | 37867 ft | 372 kts | 279° |
| 2026-04-18 15:11 | 22.70742 | 47.85465 | 37869 ft | 373 kts | 279° |
| 2026-04-18 15:12 | 22.71204 | 47.79878 | 37853 ft | 372 kts | 279° |
| 2026-04-18 15:12 | 22.71664 | 47.74295 | 37874 ft | 373 kts | 279° |
| 2026-04-18 15:13 | 22.72126 | 47.68668 | 37871 ft | 373 kts | 279° |
| 2026-04-18 15:13 | 22.72583 | 47.63075 | 37887 ft | 373 kts | 279° |
| 2026-04-18 15:14 | 22.73038 | 47.57488 | 37871 ft | 372 kts | 279° |
| 2026-04-18 15:14 | 22.73490 | 47.51909 | 37883 ft | 372 kts | 279° |
| 2026-04-18 15:15 | 22.74167 | 47.43516 | 37889 ft | 372 kts | 279° |
| 2026-04-18 15:15 | 22.74614 | 47.37931 | 37879 ft | 373 kts | 278° |
| 2026-04-18 15:16 | 22.75058 | 47.32364 | 37892 ft | 373 kts | 278° |
| 2026-04-18 15:16 | 22.75504 | 47.26752 | 37901 ft | 373 kts | 278° |
| 2026-04-18 15:17 | 22.75946 | 47.21171 | 37902 ft | 373 kts | 278° |
| 2026-04-18 15:17 | 22.76392 | 47.15555 | 37896 ft | 373 kts | 278° |
| 2026-04-18 15:18 | 22.76839 | 47.09947 | 37900 ft | 373 kts | 278° |
| 2026-04-18 15:18 | 22.77282 | 47.04354 | 37921 ft | 373 kts | 278° |
| 2026-04-18 15:19 | 22.77723 | 46.98759 | 37911 ft | 372 kts | 278° |
| 2026-04-18 15:19 | 22.78161 | 46.93185 | 37911 ft | 372 kts | 278° |
| 2026-04-18 15:20 | 22.78599 | 46.87585 | 37910 ft | 372 kts | 278° |
| 2026-04-18 15:20 | 22.79034 | 46.82001 | 37915 ft | 373 kts | 278° |
| 2026-04-18 15:21 | 22.79466 | 46.76422 | 37919 ft | 372 kts | 278° |
| 2026-04-18 15:21 | 22.79897 | 46.70833 | 37920 ft | 373 kts | 278° |
| 2026-04-18 15:22 | 22.80327 | 46.65233 | 37921 ft | 373 kts | 278° |
| 2026-04-18 15:22 | 22.80755 | 46.59639 | 37935 ft | 373 kts | 278° |
| 2026-04-18 15:23 | 22.81181 | 46.54038 | 37930 ft | 373 kts | 278° |
| 2026-04-18 15:23 | 22.81606 | 46.48418 | 37950 ft | 373 kts | 278° |
| 2026-04-18 15:24 | 22.82027 | 46.42842 | 37936 ft | 372 kts | 278° |
| 2026-04-18 15:24 | 22.82446 | 46.37241 | 37935 ft | 372 kts | 278° |
| 2026-04-18 15:25 | 22.82860 | 46.31667 | 37938 ft | 372 kts | 278° |
| 2026-04-18 15:25 | 22.83273 | 46.26070 | 37942 ft | 372 kts | 278° |
| 2026-04-18 15:26 | 22.83684 | 46.20487 | 37931 ft | 372 kts | 278° |
| 2026-04-18 15:26 | 22.84093 | 46.14889 | 37922 ft | 372 kts | 278° |
| 2026-04-18 15:27 | 22.84500 | 46.09314 | 37940 ft | 372 kts | 278° |
| 2026-04-18 15:27 | 22.84905 | 46.03722 | 37923 ft | 372 kts | 278° |
| 2026-04-18 15:28 | 22.85310 | 45.98113 | 37920 ft | 372 kts | 277° |
| 2026-04-18 15:28 | 22.85710 | 45.92539 | 37924 ft | 372 kts | 277° |
| 2026-04-18 15:29 | 22.86109 | 45.86964 | 37917 ft | 371 kts | 277° |
| 2026-04-18 15:29 | 22.86505 | 45.81391 | 37913 ft | 371 kts | 277° |
| 2026-04-18 15:30 | 22.86901 | 45.75778 | 37907 ft | 371 kts | 277° |
| 2026-04-18 15:30 | 22.87291 | 45.70239 | 37916 ft | 371 kts | 277° |
| 2026-04-18 15:31 | 22.87682 | 45.64659 | 37913 ft | 371 kts | 277° |
| 2026-04-18 15:31 | 22.88072 | 45.59070 | 37914 ft | 371 kts | 277° |
| 2026-04-18 15:32 | 22.88458 | 45.53491 | 37915 ft | 371 kts | 277° |
| 2026-04-18 15:32 | 22.88845 | 45.47890 | 37914 ft | 371 kts | 277° |
| 2026-04-18 15:33 | 22.89227 | 45.42324 | 37911 ft | 372 kts | 277° |
| 2026-04-18 15:33 | 22.89609 | 45.36727 | 37920 ft | 372 kts | 277° |
| 2026-04-18 15:34 | 22.89987 | 45.31157 | 37911 ft | 371 kts | 277° |
| 2026-04-18 15:34 | 22.90366 | 45.25551 | 37914 ft | 371 kts | 277° |
| 2026-04-18 15:35 | 22.90741 | 45.19967 | 37912 ft | 371 kts | 277° |
| 2026-04-18 15:35 | 22.91116 | 45.14378 | 37910 ft | 372 kts | 277° |
| 2026-04-18 15:36 | 22.91487 | 45.08793 | 37912 ft | 372 kts | 277° |
| 2026-04-18 15:36 | 22.91855 | 45.03201 | 37910 ft | 372 kts | 277° |
| 2026-04-18 15:37 | 22.92223 | 44.97595 | 37896 ft | 372 kts | 277° |
| 2026-04-18 15:37 | 22.92588 | 44.92014 | 37906 ft | 372 kts | 277° |
| 2026-04-18 15:38 | 22.92951 | 44.86431 | 37912 ft | 372 kts | 277° |
| 2026-04-18 15:38 | 22.93315 | 44.80800 | 37907 ft | 373 kts | 277° |
| 2026-04-18 15:39 | 22.93674 | 44.75211 | 37908 ft | 372 kts | 277° |
| 2026-04-18 15:39 | 22.94031 | 44.69620 | 37910 ft | 372 kts | 277° |
| 2026-04-18 15:40 | 22.95170 | 44.64198 | 37919 ft | 369 kts | 288° |
| 2026-04-18 15:40 | 22.96746 | 44.58876 | 37908 ft | 370 kts | 288° |
| 2026-04-18 15:41 | 22.98357 | 44.53600 | 37907 ft | 370 kts | 288° |
| 2026-04-18 15:41 | 22.99987 | 44.48306 | 37909 ft | 370 kts | 288° |
| 2026-04-18 15:42 | 23.01622 | 44.42997 | 37909 ft | 370 kts | 288° |
| 2026-04-18 15:42 | 23.03252 | 44.37698 | 37907 ft | 369 kts | 288° |
| 2026-04-18 15:43 | 23.04877 | 44.32407 | 37906 ft | 369 kts | 288° |
| 2026-04-18 15:43 | 23.06491 | 44.27148 | 37908 ft | 369 kts | 288° |
| 2026-04-18 15:44 | 23.08115 | 44.21847 | 37899 ft | 369 kts | 288° |
| 2026-04-18 15:44 | 23.09732 | 44.16564 | 37904 ft | 369 kts | 288° |
| 2026-04-18 15:45 | 23.11353 | 44.11257 | 37889 ft | 369 kts | 288° |
| 2026-04-18 15:45 | 23.12961 | 44.05988 | 37898 ft | 369 kts | 288° |
| 2026-04-18 15:46 | 23.14578 | 44.00681 | 37914 ft | 369 kts | 288° |
| 2026-04-18 15:46 | 23.16180 | 43.95421 | 37907 ft | 368 kts | 288° |
| 2026-04-18 15:47 | 23.17796 | 43.90104 | 37914 ft | 368 kts | 288° |
| 2026-04-18 15:47 | 23.19390 | 43.84851 | 37912 ft | 368 kts | 288° |
| 2026-04-18 15:48 | 23.20996 | 43.79554 | 37913 ft | 368 kts | 288° |
| 2026-04-18 15:48 | 23.22600 | 43.74253 | 37920 ft | 368 kts | 288° |
| 2026-04-18 15:49 | 23.24189 | 43.68997 | 37919 ft | 368 kts | 288° |
| 2026-04-18 15:49 | 23.25783 | 43.63720 | 37925 ft | 368 kts | 288° |
| 2026-04-18 15:50 | 23.27375 | 43.58443 | 37935 ft | 366 kts | 288° |
| 2026-04-18 15:50 | 23.28957 | 43.53188 | 37936 ft | 366 kts | 288° |
| 2026-04-18 15:51 | 23.30538 | 43.47928 | 37942 ft | 367 kts | 288° |
| 2026-04-18 15:51 | 23.32131 | 43.42627 | 37960 ft | 367 kts | 288° |
| 2026-04-18 15:52 | 23.33709 | 43.37366 | 37942 ft | 366 kts | 288° |
| 2026-04-18 15:52 | 23.35285 | 43.32104 | 37954 ft | 366 kts | 288° |
| 2026-04-18 15:53 | 23.36860 | 43.26837 | 37951 ft | 366 kts | 288° |
| 2026-04-18 15:53 | 23.38430 | 43.21582 | 37962 ft | 365 kts | 288° |
| 2026-04-18 15:54 | 23.39998 | 43.16328 | 37956 ft | 365 kts | 288° |
| 2026-04-18 15:54 | 23.41565 | 43.11057 | 37957 ft | 365 kts | 287° |
| 2026-04-18 15:55 | 23.43124 | 43.05804 | 37964 ft | 365 kts | 287° |
| 2026-04-18 15:55 | 23.44677 | 43.00565 | 37954 ft | 365 kts | 287° |
| 2026-04-18 15:56 | 23.45980 | 42.96166 | 37955 ft | 366 kts | 287° |
| 2026-04-18 15:56 | 23.47535 | 42.90905 | 37956 ft | 365 kts | 287° |
| 2026-04-18 15:57 | 23.49099 | 42.85612 | 37958 ft | 365 kts | 287° |
| 2026-04-18 15:57 | 23.50644 | 42.80372 | 37959 ft | 365 kts | 287° |
| 2026-04-18 15:58 | 23.52205 | 42.75075 | 37948 ft | 365 kts | 287° |
| 2026-04-18 15:58 | 23.53755 | 42.69816 | 37944 ft | 365 kts | 287° |
| 2026-04-18 15:59 | 23.55309 | 42.64535 | 37950 ft | 365 kts | 287° |
| 2026-04-18 15:59 | 23.56852 | 42.59288 | 37938 ft | 365 kts | 287° |
| 2026-04-18 16:00 | 23.58405 | 42.53996 | 37940 ft | 365 kts | 287° |
| 2026-04-18 16:00 | 23.59948 | 42.48732 | 37931 ft | 365 kts | 287° |
| 2026-04-18 16:01 | 23.61494 | 42.43450 | 37929 ft | 365 kts | 287° |
| 2026-04-18 16:01 | 23.63029 | 42.38199 | 37928 ft | 365 kts | 287° |
| 2026-04-18 16:02 | 23.64572 | 42.32914 | 37924 ft | 366 kts | 287° |
| 2026-04-18 16:02 | 23.66109 | 42.27633 | 37918 ft | 366 kts | 287° |
| 2026-04-18 16:03 | 23.67652 | 42.22318 | 37916 ft | 365 kts | 287° |
| 2026-04-18 16:03 | 23.69179 | 42.17046 | 37917 ft | 365 kts | 287° |
| 2026-04-18 16:04 | 23.70703 | 42.11781 | 37922 ft | 365 kts | 287° |
| 2026-04-18 16:04 | 23.72224 | 42.06516 | 37917 ft | 365 kts | 287° |
| 2026-04-18 16:05 | 23.73754 | 42.01216 | 37916 ft | 365 kts | 287° |
| 2026-04-18 16:05 | 23.75281 | 41.95933 | 37916 ft | 364 kts | 287° |
| 2026-04-18 16:06 | 23.76801 | 41.90673 | 37911 ft | 364 kts | 286° |
| 2026-04-18 16:06 | 23.78322 | 41.85401 | 37907 ft | 364 kts | 286° |
| 2026-04-18 16:07 | 23.79833 | 41.80160 | 37909 ft | 364 kts | 286° |
| 2026-04-18 16:07 | 23.81355 | 41.74866 | 37914 ft | 363 kts | 286° |
| 2026-04-18 16:08 | 23.82859 | 41.69628 | 37910 ft | 363 kts | 286° |
| 2026-04-18 16:08 | 23.84364 | 41.64378 | 37907 ft | 363 kts | 286° |
| 2026-04-18 16:09 | 23.85872 | 41.59111 | 37907 ft | 363 kts | 286° |
| 2026-04-18 16:09 | 23.87371 | 41.53853 | 37915 ft | 363 kts | 286° |
| 2026-04-18 16:10 | 23.88863 | 41.48605 | 37907 ft | 363 kts | 286° |
| 2026-04-18 16:10 | 23.90365 | 41.43313 | 37910 ft | 363 kts | 286° |
| 2026-04-18 16:11 | 23.91852 | 41.38070 | 37907 ft | 363 kts | 286° |
| 2026-04-18 16:11 | 23.93348 | 41.32796 | 37911 ft | 363 kts | 286° |
| 2026-04-18 16:12 | 23.94842 | 41.27530 | 37903 ft | 363 kts | 285° |
| 2026-04-18 16:12 | 23.96333 | 41.22262 | 37906 ft | 363 kts | 285° |
| 2026-04-18 16:13 | 23.97824 | 41.16987 | 37905 ft | 363 kts | 285° |
| 2026-04-18 16:13 | 23.99303 | 41.11746 | 37898 ft | 363 kts | 285° |
| 2026-04-18 16:14 | 24.00797 | 41.06450 | 37910 ft | 365 kts | 285° |
| 2026-04-18 16:14 | 24.02290 | 41.01145 | 37906 ft | 364 kts | 285° |
| 2026-04-18 16:15 | 24.04526 | 40.93191 | 37906 ft | 364 kts | 285° |
| 2026-04-18 16:16 | 24.06013 | 40.87889 | 37897 ft | 364 kts | 285° |
| 2026-04-18 16:16 | 24.07498 | 40.82588 | 37898 ft | 364 kts | 285° |
| 2026-04-18 16:17 | 24.08973 | 40.77316 | 37898 ft | 364 kts | 285° |
| 2026-04-18 16:17 | 24.10454 | 40.72013 | 37895 ft | 364 kts | 285° |
| 2026-04-18 16:18 | 24.11935 | 40.66704 | 37894 ft | 364 kts | 285° |
| 2026-04-18 16:18 | 24.13411 | 40.61403 | 37891 ft | 364 kts | 285° |
| 2026-04-18 16:19 | 24.14887 | 40.56094 | 37883 ft | 364 kts | 285° |
| 2026-04-18 16:19 | 24.16492 | 40.50875 | 37873 ft | 366 kts | 294° |
| 2026-04-18 16:20 | 24.18854 | 40.45929 | 37869 ft | 366 kts | 294° |
| 2026-04-18 16:20 | 24.21212 | 40.40983 | 37874 ft | 366 kts | 294° |
| 2026-04-18 16:21 | 24.23578 | 40.36043 | 37874 ft | 366 kts | 294° |
| 2026-04-18 16:21 | 24.25944 | 40.31102 | 37875 ft | 366 kts | 294° |
| 2026-04-18 16:22 | 24.28291 | 40.26194 | 37876 ft | 366 kts | 294° |
| 2026-04-18 16:22 | 24.30654 | 40.21250 | 37879 ft | 366 kts | 294° |
| 2026-04-18 16:23 | 24.33013 | 40.16307 | 37883 ft | 366 kts | 294° |
| 2026-04-18 16:23 | 24.36547 | 40.08893 | 37882 ft | 366 kts | 294° |
| 2026-04-18 16:24 | 24.38886 | 40.03980 | 37881 ft | 366 kts | 294° |
| 2026-04-18 16:24 | 24.41239 | 39.99032 | 37882 ft | 365 kts | 293° |
| 2026-04-18 16:25 | 24.43586 | 39.94092 | 37881 ft | 365 kts | 293° |
| 2026-04-18 16:25 | 24.45934 | 39.89144 | 37882 ft | 365 kts | 293° |